Time;durP1;ratioP1;P1;durP2;ratioP2;P2;SDS_P1;SDS_P2;PMS_P1;PMS_P2;Temp;Humidity;BMP_temperature;BMP_pressure;BME280_temperature;BME280_humidity;BME280_pressure;Samples;Min_cycle;Max_cycle;Signal;HPM_P1;HPM_P2
2022/10/14 00:01:16;;;;;;;0.77;0.77;;;17.40;78.20;;;;;;5048270;28;20123;-42
2022/10/14 00:03:43;;;;;;;1.77;0.38;;;17.40;78.30;;;;;;5048491;28;20484;-42
2022/10/14 00:06:13;;;;;;;0.82;0.68;;;17.40;78.40;;;;;;5048510;28;20037;-42
2022/10/14 00:08:42;;;;;;;1.08;0.82;;;17.40;78.40;;;;;;5048487;28;20048;-42
2022/10/14 00:11:17;;;;;;;2.70;1.15;;;17.40;78.40;;;;;;5047985;28;20041;-42
2022/10/14 00:13:44;;;;;;;0.80;0.80;;;17.40;78.50;;;;;;5030309;28;20499;-42
2022/10/14 00:16:20;;;;;;;1.35;0.50;;;17.40;78.50;;;;;;5048142;28;20044;-42
2022/10/14 00:18:48;;;;;;;0.60;0.50;;;17.40;78.60;;;;;;5048233;28;20049;-42
2022/10/14 00:21:15;;;;;;;0.45;0.45;;;17.30;78.60;;;;;;5048118;28;20511;-42
2022/10/14 00:23:43;;;;;;;1.05;0.68;;;17.40;78.80;;;;;;5047907;28;20048;-42
2022/10/14 00:26:18;;;;;;;0.65;0.57;;;17.40;78.80;;;;;;5043373;28;20052;-42
2022/10/14 00:28:45;;;;;;;2.83;1.03;;;17.40;78.90;;;;;;5047994;28;20045;-42
2022/10/14 00:31:12;;;;;;;2.60;0.30;;;17.40;78.80;;;;;;5047793;28;20136;-41
2022/10/14 00:33:41;;;;;;;0.50;0.50;;;17.40;78.90;;;;;;5047894;28;20060;-41
2022/10/14 00:36:11;;;;;;;0.45;0.45;;;17.40;78.90;;;;;;5048052;28;20120;-41
2022/10/14 00:38:38;;;;;;;1.45;0.40;;;17.40;79.00;;;;;;5047696;28;20049;-41
2022/10/14 00:41:07;;;;;;;0.32;0.22;;;17.40;79.00;;;;;;5047106;28;20037;-41
2022/10/14 00:43:53;;;;;;;0.52;0.20;;;17.40;79.00;;;;;;5039986;28;20422;-41
2022/10/14 00:46:21;;;;;;;0.73;0.40;;;17.40;78.80;;;;;;5042455;28;20521;-41
2022/10/14 00:48:53;;;;;;;1.40;0.32;;;17.30;78.80;;;;;;5046139;28;20041;-45
2022/10/14 00:51:21;;;;;;;2.05;0.50;;;17.40;79.00;;;;;;5047805;28;20052;-41
2022/10/14 00:53:50;;;;;;;0.28;0.25;;;17.30;78.90;;;;;;5046909;28;20300;-41
2022/10/14 00:56:22;;;;;;;0.30;0.30;;;17.40;79.00;;;;;;5047442;28;20047;-41
2022/10/14 00:58:49;;;;;;;0.25;0.20;;;17.40;79.00;;;;;;5047768;28;20068;-41
2022/10/14 01:01:17;;;;;;;1.08;0.40;;;17.30;79.00;;;;;;5046226;28;20041;-41
2022/10/14 01:03:44;;;;;;;0.40;0.40;;;17.40;79.00;;;;;;5046519;28;20068;-41
2022/10/14 01:06:19;;;;;;;0.55;0.35;;;17.40;79.00;;;;;;5047840;28;20094;-41
2022/10/14 01:08:54;;;;;;;2.03;1.13;;;17.40;78.90;;;;;;5046256;28;20132;-41
2022/10/14 01:11:31;;;;;;;0.50;0.50;;;17.40;79.00;;;;;;5047232;28;20044;-41
2022/10/14 01:14:06;;;;;;;0.38;0.38;;;17.40;78.90;;;;;;5048079;28;20579;-41
2022/10/14 01:16:42;;;;;;;0.75;0.75;;;17.40;78.90;;;;;;5047573;28;20695;-42
2022/10/14 01:19:37;;;;;;;2.15;0.20;;;17.40;79.00;;;;;;5057431;28;20053;-41
2022/10/14 01:22:13;;;;;;;2.25;0.55;;;17.40;79.00;;;;;;5047639;28;20041;-41
2022/10/14 01:24:45;;;;;;;0.50;0.40;;;17.40;79.00;;;;;;5047889;28;20041;-41
2022/10/14 01:27:52;;;;;;;2.58;0.20;;;17.30;79.00;;;;;;5040172;28;20222;-41
2022/10/14 01:30:21;;;;;;;;;;;17.40;78.80;;;;;;5047790;28;20942;-41
2022/10/14 01:33:01;;;;;;;2.50;0.70;;;17.30;78.80;;;;;;5045962;28;19925;-41
2022/10/14 01:35:37;;;;;;;0.77;0.30;;;17.30;79.10;;;;;;5045942;28;20521;-41
2022/10/14 01:38:08;;;;;;;0.50;0.50;;;17.30;79.20;;;;;;5047359;28;20049;-42
2022/10/14 01:40:42;;;;;;;0.50;0.30;;;17.30;79.20;;;;;;5047447;28;20127;-41
2022/10/14 01:43:12;;;;;;;0.47;0.40;;;17.30;79.30;;;;;;5047518;28;20043;-41
2022/10/14 01:45:43;;;;;;;0.35;0.30;;;17.30;79.30;;;;;;5046131;28;20041;-41
2022/10/14 01:48:15;;;;;;;0.52;0.30;;;17.30;79.40;;;;;;5046655;28;20045;-41
2022/10/14 01:50:47;;;;;;;0.93;0.40;;;17.30;79.30;;;;;;5047676;28;20049;-41
2022/10/14 01:53:17;;;;;;;0.45;0.30;;;17.30;79.40;;;;;;5046817;28;20040;-41
2022/10/14 01:55:47;;;;;;;0.50;0.50;;;17.30;79.40;;;;;;5045577;28;20432;-41
2022/10/14 01:58:17;;;;;;;0.30;0.30;;;17.30;79.50;;;;;;5047692;28;20063;-41
2022/10/14 02:00:46;;;;;;;0.77;0.77;;;17.30;79.50;;;;;;5029331;28;20049;-41
2022/10/14 02:03:14;;;;;;;0.98;0.88;;;17.30;79.50;;;;;;5045368;28;20045;-41
2022/10/14 02:05:46;;;;;;;0.57;0.45;;;17.30;79.50;;;;;;5045196;28;20041;-41
2022/10/14 02:08:20;;;;;;;0.60;0.55;;;17.30;79.60;;;;;;5055439;28;20120;-41
2022/10/14 02:11:04;;;;;;;1.33;0.60;;;17.30;79.60;;;;;;5045347;28;20063;-41
2022/10/14 02:13:45;;;;;;;2.53;0.68;;;17.30;79.50;;;;;;5046977;28;20041;-41
2022/10/14 02:16:20;;;;;;;0.40;0.32;;;17.30;79.60;;;;;;5028713;28;20131;-41
2022/10/14 02:18:51;;;;;;;0.77;0.47;;;17.30;79.70;;;;;;5044822;28;20478;-42
2022/10/14 02:21:22;;;;;;;0.80;0.80;;;17.40;79.80;;;;;;5043160;28;20043;-41
2022/10/14 02:24:15;;;;;;;0.50;0.50;;;17.30;79.70;;;;;;5041845;28;20060;-41
2022/10/14 02:26:43;;;;;;;0.60;0.50;;;17.30;79.80;;;;;;5046627;28;20477;-40
2022/10/14 02:29:12;;;;;;;0.50;0.50;;;17.30;79.80;;;;;;5044799;28;20072;-41
2022/10/14 02:31:42;;;;;;;0.43;0.40;;;17.30;79.80;;;;;;5047060;28;20045;-41
2022/10/14 02:34:16;;;;;;;0.82;0.80;;;17.30;79.90;;;;;;5046605;28;20049;-41
2022/10/14 02:36:44;;;;;;;0.32;0.32;;;17.40;79.90;;;;;;5048883;28;20045;-41
2022/10/14 02:39:15;;;;;;;1.58;0.65;;;17.30;79.90;;;;;;5050303;28;20485;-41
2022/10/14 02:41:42;;;;;;;0.40;0.32;;;17.40;80.00;;;;;;5050091;28;20041;-41
2022/10/14 02:44:09;;;;;;;2.67;0.75;;;17.40;80.00;;;;;;5050237;28;20124;-41
2022/10/14 02:46:40;;;;;;;0.73;0.60;;;17.40;80.00;;;;;;5043940;28;20053;-41
2022/10/14 02:49:10;;;;;;;0.75;0.75;;;17.40;80.00;;;;;;5038334;28;20060;-41
2022/10/14 02:51:37;;;;;;;2.10;0.82;;;17.40;80.00;;;;;;5040272;28;20053;-42
2022/10/14 02:54:04;;;;;;;1.40;1.33;;;17.40;79.90;;;;;;5048164;28;20048;-42
2022/10/14 02:56:31;;;;;;;1.02;0.90;;;17.40;79.90;;;;;;5049429;28;20044;-41
2022/10/14 02:59:00;;;;;;;0.50;0.50;;;17.40;80.00;;;;;;5048434;28;20052;-41
2022/10/14 03:01:28;;;;;;;0.55;0.45;;;17.40;80.00;;;;;;5036174;28;20050;-41
2022/10/14 03:03:56;;;;;;;2.25;1.08;;;17.40;80.00;;;;;;5046685;28;20045;-41
2022/10/14 03:06:24;;;;;;;1.27;0.98;;;17.40;80.00;;;;;;5047803;28;20119;-41
2022/10/14 03:08:51;;;;;;;1.52;0.80;;;17.40;80.00;;;;;;5048060;28;20051;-41
2022/10/14 03:11:19;;;;;;;1.30;0.98;;;17.40;80.10;;;;;;5047728;28;20033;-41
2022/10/14 03:13:46;;;;;;;0.68;0.68;;;17.50;80.10;;;;;;5048181;28;20516;-41
2022/10/14 03:16:13;;;;;;;0.60;0.60;;;17.50;80.10;;;;;;5028180;28;20038;-41
2022/10/14 03:18:44;;;;;;;7.57;1.33;;;17.50;80.60;;;;;;5046796;28;20516;-41
2022/10/14 03:21:22;;;;;;;0.70;0.52;;;17.50;80.00;;;;;;5041822;28;20045;-41
2022/10/14 03:23:49;;;;;;;0.52;0.52;;;17.50;80.10;;;;;;5043252;28;20045;-41
2022/10/14 03:26:19;;;;;;;0.77;0.38;;;17.50;80.10;;;;;;5047807;28;20501;-42
2022/10/14 03:28:47;;;;;;;0.95;0.50;;;17.40;80.50;;;;;;5048167;28;20444;-41
2022/10/14 03:31:22;;;;;;;0.80;0.30;;;17.40;80.00;;;;;;5047948;28;20124;-41
2022/10/14 03:34:01;;;;;;;0.50;0.50;;;17.40;80.10;;;;;;5040903;28;20064;-42
2022/10/14 03:36:30;;;;;;;3.17;0.47;;;17.40;80.10;;;;;;5047121;28;20049;-42
2022/10/14 03:38:58;;;;;;;0.70;0.30;;;17.50;80.20;;;;;;5047598;28;20053;-41
2022/10/14 03:41:39;;;;;;;1.65;0.50;;;17.40;80.10;;;;;;5045856;28;20056;-41
2022/10/14 03:44:07;;;;;;;6.35;0.20;;;17.50;80.10;;;;;;5031191;28;20037;-41
2022/10/14 03:46:37;;;;;;;1.20;0.30;;;17.40;80.00;;;;;;5047543;28;20033;-42
2022/10/14 03:49:04;;;;;;;4.25;0.50;;;17.40;79.80;;;;;;5048652;28;20489;-42
2022/10/14 03:51:34;;;;;;;0.63;0.20;;;17.50;79.70;;;;;;5047478;28;20374;-41
2022/10/14 03:54:09;;;;;;;0.20;0.13;;;17.50;79.60;;;;;;5046572;28;20076;-41
2022/10/14 03:56:36;;;;;;;0.10;0.10;;;17.50;79.50;;;;;;5042149;28;20052;-42
2022/10/14 03:59:03;;;;;;;0.28;0.10;;;17.50;79.40;;;;;;5047363;28;20037;-41
2022/10/14 04:01:32;;;;;;;0.10;0.10;;;17.50;79.30;;;;;;5040442;28;20140;-41
2022/10/14 04:04:15;;;;;;;0.10;0.10;;;17.50;79.10;;;;;;5043193;28;20417;-41
2022/10/14 04:06:44;;;;;;;0.10;0.10;;;17.50;79.00;;;;;;5047558;28;20130;-41
2022/10/14 04:09:11;;;;;;;0.13;0.13;;;17.50;78.90;;;;;;5046996;28;20054;-42
2022/10/14 04:11:41;;;;;;;0.10;0.10;;;17.50;78.70;;;;;;5046684;28;20115;-41
2022/10/14 04:14:25;;;;;;;0.10;0.00;;;17.50;78.50;;;;;;5042175;28;20045;-42
2022/10/14 04:16:52;;;;;;;0.10;0.10;;;17.50;78.40;;;;;;5046823;28;20429;-41
2022/10/14 04:19:19;;;;;;;2.95;0.10;;;17.50;78.30;;;;;;5046877;28;20029;-41
2022/10/14 04:21:48;;;;;;;0.17;0.10;;;17.50;78.20;;;;;;5046612;28;20041;-42
2022/10/14 04:24:17;;;;;;;0.40;0.00;;;17.50;78.10;;;;;;5041268;28;20501;-44
2022/10/14 04:26:51;;;;;;;2.22;0.08;;;17.50;78.50;;;;;;5042604;28;20510;-44
2022/10/14 04:29:26;;;;;;;1.75;0.05;;;17.70;78.80;;;;;;5045789;28;20127;-42
2022/10/14 04:32:02;;;;;;;5.28;0.63;;;17.80;78.80;;;;;;5044513;28;20536;-44
2022/10/14 04:34:30;;;;;;;4.90;0.10;;;18.00;78.80;;;;;;5046428;28;20056;-42
2022/10/14 04:36:59;;;;;;;0.00;0.00;;;18.20;78.70;;;;;;5046404;28;20114;-44
2022/10/14 04:39:44;;;;;;;2.42;0.10;;;18.40;78.60;;;;;;5042919;28;20057;-42
2022/10/14 04:42:12;;;;;;;1.98;0.00;;;18.50;78.30;;;;;;5046175;28;20063;-42
2022/10/14 04:44:39;;;;;;;1.90;0.20;;;18.80;78.10;;;;;;5045784;28;20048;-43
2022/10/14 04:47:06;;;;;;;1.00;0.10;;;18.90;77.80;;;;;;5045306;28;20075;-42
2022/10/14 04:49:33;;;;;;;0.77;0.77;;;19.10;77.40;;;;;;5045984;28;20154;-43
2022/10/14 04:52:09;;;;;;;2.72;0.88;;;19.30;77.60;;;;;;5045287;28;20230;-43
2022/10/14 04:54:46;;;;;;;0.77;0.35;;;19.40;76.70;;;;;;5044918;28;20075;-45
2022/10/14 04:57:13;;;;;;;0.38;0.00;;;19.60;76.50;;;;;;5044797;28;20032;-45
2022/10/14 04:59:43;;;;;;;6.20;0.10;;;19.70;76.10;;;;;;5045295;28;20515;-43
2022/10/14 05:02:19;;;;;;;0.00;0.00;;;19.90;75.70;;;;;;5073364;28;20045;-44
2022/10/14 05:04:59;;;;;;;2.17;0.00;;;20.10;75.40;;;;;;5045842;28;20057;-45
2022/10/14 05:07:30;;;;;;;0.00;0.00;;;20.20;75.00;;;;;;5045922;28;20044;-44
2022/10/14 05:10:08;;;;;;;0.08;0.00;;;20.30;74.60;;;;;;5039100;28;20045;-44
2022/10/14 05:12:41;;;;;;;0.10;0.00;;;20.50;74.30;;;;;;5043933;28;20118;-43
2022/10/14 05:15:09;;;;;;;0.52;0.00;;;20.60;73.80;;;;;;5048531;28;20037;-46
2022/10/14 05:17:57;;;;;;;3.15;0.00;;;20.70;73.40;;;;;;5046426;28;20049;-43
2022/10/14 05:20:32;;;;;;;2.20;0.60;;;20.90;73.10;;;;;;5045154;28;20111;-43
2022/10/14 05:23:00;;;;;;;0.10;0.00;;;21.00;72.80;;;;;;5045439;28;20040;-45
2022/10/14 05:25:28;;;;;;;0.13;0.13;;;21.10;72.40;;;;;;5041122;28;20048;-45
2022/10/14 05:27:55;;;;;;;0.45;0.00;;;21.20;72.00;;;;;;5042740;28;20044;-47
2022/10/14 05:30:23;;;;;;;0.10;0.00;;;21.30;71.50;;;;;;5044915;28;20051;-45
2022/10/14 05:32:52;;;;;;;0.00;0.00;;;21.40;71.20;;;;;;5045221;28;20048;-49
2022/10/14 05:35:20;;;;;;;0.73;0.08;;;21.40;70.90;;;;;;5045459;28;20076;-47
2022/10/14 05:37:48;;;;;;;0.43;0.10;;;21.50;70.60;;;;;;5046620;28;20037;-46
2022/10/14 05:40:16;;;;;;;2.55;0.20;;;21.60;70.30;;;;;;5043566;28;20053;-47
2022/10/14 05:42:44;;;;;;;2.85;0.00;;;21.70;70.00;;;;;;5045504;28;20056;-47
2022/10/14 05:45:11;;;;;;;0.00;0.00;;;21.70;69.70;;;;;;5046664;28;20142;-46
2022/10/14 05:47:45;;;;;;;0.10;0.03;;;21.80;69.40;;;;;;5039418;28;20045;-53
2022/10/14 05:50:17;;;;;;;1.15;0.30;;;21.90;69.20;;;;;;5045126;28;20095;-48
2022/10/14 05:52:45;;;;;;;3.60;0.10;;;21.90;68.90;;;;;;5040877;28;20056;-50
2022/10/14 05:55:20;;;;;;;0.10;0.10;;;22.00;68.80;;;;;;5040759;28;20048;-47
2022/10/14 05:57:48;;;;;;;1.27;0.10;;;22.00;68.60;;;;;;5045789;28;20045;-47
2022/10/14 06:00:19;;;;;;;1.60;0.00;;;22.10;68.40;;;;;;5044821;28;20493;-47
2022/10/14 06:02:50;;;;;;;0.55;0.05;;;22.10;68.20;;;;;;5045038;28;20059;-48
2022/10/14 06:05:18;;;;;;;0.28;0.10;;;22.20;68.10;;;;;;5039879;28;20678;-47
2022/10/14 06:07:46;;;;;;;0.20;0.10;;;22.20;68.00;;;;;;5041355;28;20064;-47
2022/10/14 06:10:13;;;;;;;0.20;0.10;;;22.30;67.90;;;;;;5050184;28;20052;-48
2022/10/14 06:12:42;;;;;;;0.52;0.10;;;22.30;67.70;;;;;;5046313;28;20112;-50
2022/10/14 06:15:09;;;;;;;1.92;0.95;;;22.30;67.50;;;;;;5078662;28;20048;-51
2022/10/14 06:17:37;;;;;;;0.25;0.10;;;22.40;67.40;;;;;;5049315;28;20053;-48
2022/10/14 06:20:05;;;;;;;0.40;0.10;;;22.40;67.30;;;;;;5048472;28;20139;-49
2022/10/14 06:22:32;;;;;;;1.38;0.60;;;22.40;67.10;;;;;;5048457;28;20127;-47
2022/10/14 06:24:59;;;;;;;0.55;0.10;;;22.50;67.00;;;;;;5048238;28;20045;-46
2022/10/14 06:27:27;;;;;;;1.83;0.13;;;22.50;65.90;;;;;;5049138;28;20037;-47
2022/10/14 06:29:55;;;;;;;4.03;0.50;;;22.50;65.00;;;;;;5049538;28;20401;-45
2022/10/14 06:32:22;;;;;;;1.13;0.63;;;22.40;64.50;;;;;;5047966;28;20120;-46
2022/10/14 06:34:49;;;;;;;0.93;0.38;;;22.30;64.10;;;;;;5048618;28;20045;-46
2022/10/14 06:37:16;;;;;;;2.17;0.10;;;22.30;63.90;;;;;;5048877;28;20064;-48
2022/10/14 06:39:43;;;;;;;0.10;0.10;;;22.20;63.70;;;;;;5049345;28;20041;-47
2022/10/14 06:42:10;;;;;;;0.38;0.38;;;22.20;63.70;;;;;;5049164;28;20055;-49
2022/10/14 06:44:39;;;;;;;3.35;0.10;;;22.10;63.50;;;;;;5075197;28;20123;-47
2022/10/14 06:47:08;;;;;;;0.55;0.10;;;22.10;63.50;;;;;;5048128;28;20127;-49
2022/10/14 06:49:35;;;;;;;0.30;0.10;;;22.00;63.30;;;;;;5048933;28;20041;-48
2022/10/14 06:52:02;;;;;;;0.20;0.10;;;22.00;63.30;;;;;;5049444;28;20800;-51
2022/10/14 06:54:29;;;;;;;1.08;0.10;;;21.90;63.10;;;;;;5048478;28;20064;-50
2022/10/14 06:56:56;;;;;;;2.28;0.55;;;21.90;63.10;;;;;;5048729;28;20355;-49
2022/10/14 06:59:24;;;;;;;0.28;0.28;;;21.80;63.00;;;;;;5049126;28;20055;-47
2022/10/14 07:01:51;;;;;;;0.73;0.20;;;21.80;62.90;;;;;;5048330;28;20476;-49
2022/10/14 07:04:20;;;;;;;0.43;0.10;;;21.80;62.70;;;;;;5045430;28;20037;-55
2022/10/14 07:06:47;;;;;;;0.10;0.10;;;21.80;62.50;;;;;;5047348;28;20043;-45
2022/10/14 07:09:14;;;;;;;2.42;0.28;;;21.70;62.40;;;;;;5049660;28;20409;-45
2022/10/14 07:11:42;;;;;;;0.20;0.00;;;21.70;62.40;;;;;;5046122;28;20571;-43
2022/10/14 07:14:09;;;;;;;0.63;0.13;;;21.70;62.40;;;;;;5046241;28;20037;-43
2022/10/14 07:16:36;;;;;;;0.90;0.13;;;21.60;62.50;;;;;;5047603;28;20108;-44
2022/10/14 07:19:03;;;;;;;0.30;0.00;;;21.60;62.50;;;;;;5047552;28;20043;-48
2022/10/14 07:21:31;;;;;;;0.40;0.40;;;21.50;62.40;;;;;;5049067;28;20146;-44
2022/10/14 07:23:58;;;;;;;0.10;0.10;;;21.50;62.40;;;;;;5048818;28;20041;-44
2022/10/14 07:26:26;;;;;;;1.45;0.00;;;21.50;62.50;;;;;;5047195;28;20051;-46
2022/10/14 07:28:54;;;;;;;0.57;0.10;;;21.60;62.60;;;;;;5049075;28;20045;-47
2022/10/14 07:31:21;;;;;;;0.45;0.10;;;21.50;62.50;;;;;;5044300;28;20055;-48
2022/10/14 07:33:48;;;;;;;1.02;0.00;;;21.50;62.50;;;;;;5049250;28;20037;-49
2022/10/14 07:36:17;;;;;;;0.10;0.10;;;21.50;62.50;;;;;;5046095;28;20057;-50
2022/10/14 07:38:47;;;;;;;1.55;0.10;;;21.50;62.50;;;;;;5047519;28;20044;-46
2022/10/14 07:41:17;;;;;;;3.40;0.10;;;21.40;62.40;;;;;;5048038;28;20521;-50
2022/10/14 07:43:44;;;;;;;1.88;0.10;;;21.40;63.40;;;;;;5046807;28;20069;-50
2022/10/14 07:46:12;;;;;;;4.75;0.00;;;21.50;64.00;;;;;;5048480;28;20039;-44
2022/10/14 07:48:39;;;;;;;5.18;0.00;;;21.70;64.30;;;;;;5049254;28;20134;-43
2022/10/14 07:51:07;;;;;;;4.03;0.00;;;21.80;64.50;;;;;;5048681;28;20454;-44
2022/10/14 07:53:35;;;;;;;0.10;0.00;;;22.00;64.70;;;;;;5048369;28;20555;-45
2022/10/14 07:56:04;;;;;;;3.05;0.30;;;22.20;65.00;;;;;;5048869;28;20047;-46
2022/10/14 07:58:31;;;;;;;6.28;0.55;;;22.30;64.80;;;;;;5048962;28;20049;-43
2022/10/14 08:00:58;;;;;;;6.20;0.73;;;22.40;64.60;;;;;;5046859;28;20040;-44
2022/10/14 08:03:26;;;;;;;5.93;0.20;;;22.50;64.40;;;;;;5048321;28;20106;-41
2022/10/14 08:05:58;;;;;;;3.17;0.15;;;22.60;64.40;;;;;;5048321;28;20041;-40
2022/10/14 08:08:27;;;;;;;12.55;1.75;;;22.70;64.10;;;;;;5047903;28;20554;-40
2022/10/14 08:11:01;;;;;;;13.23;1.10;;;22.80;63.80;;;;;;5045170;28;20038;-40
2022/10/14 08:13:30;;;;;;;1.90;0.10;;;22.90;63.50;;;;;;5048454;28;20056;-40
2022/10/14 08:15:57;;;;;;;4.40;0.40;;;23.00;63.10;;;;;;5042574;28;20565;-40
2022/10/14 08:18:25;;;;;;;7.80;1.08;;;23.00;62.80;;;;;;5048756;28;20045;-40
2022/10/14 08:20:52;;;;;;;2.28;0.20;;;23.10;62.50;;;;;;5048968;28;20045;-40
2022/10/14 08:23:20;;;;;;;5.15;0.10;;;23.20;62.20;;;;;;5047402;28;20095;-40
2022/10/14 08:25:49;;;;;;;2.70;0.10;;;23.20;61.90;;;;;;5048861;28;20055;-40
2022/10/14 08:28:16;;;;;;;2.28;0.15;;;23.30;61.70;;;;;;5042635;28;20091;-40
2022/10/14 08:30:45;;;;;;;1.65;0.57;;;23.30;61.50;;;;;;5041802;28;20532;-40
2022/10/14 08:33:13;;;;;;;0.82;0.32;;;23.30;61.20;;;;;;5047851;28;20061;-41
2022/10/14 08:35:40;;;;;;;4.97;0.20;;;23.40;61.10;;;;;;5042024;28;20509;-40
2022/10/14 08:38:07;;;;;;;3.83;0.20;;;23.40;60.90;;;;;;5048637;28;20051;-39
2022/10/14 08:41:00;;;;;;;3.10;0.10;;;23.40;60.70;;;;;;5048551;28;20036;-40
2022/10/14 08:43:32;;;;;;;1.33;0.17;;;23.50;60.60;;;;;;5045695;28;20047;-39
2022/10/14 08:46:09;;;;;;;3.53;0.28;;;23.50;60.50;;;;;;5048571;28;20037;-40
2022/10/14 08:48:38;;;;;;;1.00;0.10;;;23.50;61.00;;;;;;5048176;28;20055;-40
2022/10/14 08:51:09;;;;;;;0.75;0.20;;;23.50;60.40;;;;;;5048495;28;20048;-41
2022/10/14 08:53:41;;;;;;;1.17;0.38;;;23.50;60.30;;;;;;5048021;28;20053;-42
2022/10/14 08:56:11;;;;;;;0.35;0.20;;;23.50;60.30;;;;;;5048213;28;20120;-41
2022/10/14 08:58:43;;;;;;;1.95;0.00;;;23.50;60.20;;;;;;5041811;28;20148;-40
2022/10/14 09:01:19;;;;;;;0.00;0.00;;;23.50;60.10;;;;;;5042004;28;20391;-40
2022/10/14 09:03:46;;;;;;;;;;;23.50;60.20;;;;;;5048565;28;20094;-40
2022/10/14 09:06:19;;;;;;;1.10;0.17;;;23.40;60.10;;;;;;5047673;28;19927;-40
2022/10/14 09:08:49;;;;;;;3.58;0.10;;;23.40;60.20;;;;;;5048132;28;20124;-40
2022/10/14 09:11:20;;;;;;;1.48;0.10;;;23.40;60.10;;;;;;5047888;28;20064;-40
2022/10/14 09:13:50;;;;;;;0.10;0.00;;;23.50;60.10;;;;;;5047845;28;20715;-40
2022/10/14 09:16:22;;;;;;;0.65;0.25;;;23.40;60.00;;;;;;5047272;28;20144;-39
2022/10/14 09:18:53;;;;;;;0.60;0.10;;;23.40;60.00;;;;;;5047268;28;20083;-40
2022/10/14 09:21:32;;;;;;;0.55;0.10;;;23.40;59.90;;;;;;5047428;28;20041;-40
2022/10/14 09:24:02;;;;;;;0.35;0.10;;;23.50;60.00;;;;;;5047804;28;20882;-40
2022/10/14 09:26:38;;;;;;;1.77;0.10;;;23.50;60.00;;;;;;5047799;28;20458;-40
2022/10/14 09:29:09;;;;;;;0.10;0.10;;;23.50;59.80;;;;;;5041669;28;20048;-40
2022/10/14 09:31:38;;;;;;;1.23;0.10;;;23.40;59.80;;;;;;5047875;28;20132;-41
2022/10/14 09:34:08;;;;;;;3.08;0.20;;;23.40;59.80;;;;;;5046789;28;20407;-41
2022/10/14 09:36:35;;;;;;;3.72;0.10;;;23.40;59.70;;;;;;5048171;28;20469;-41
2022/10/14 09:39:03;;;;;;;0.20;0.10;;;23.40;59.70;;;;;;5048143;28;20037;-45
2022/10/14 09:41:32;;;;;;;0.55;0.10;;;23.40;59.70;;;;;;5051391;28;20099;-41
2022/10/14 09:44:21;;;;;;;0.03;0.00;;;23.40;60.20;;;;;;5051351;28;20040;-41
2022/10/14 09:46:56;;;;;;;1.42;0.20;;;23.40;59.60;;;;;;5051974;28;20063;-40
2022/10/14 09:49:33;;;;;;;0.20;0.08;;;23.40;59.70;;;;;;5051659;28;20567;-41
2022/10/14 09:52:01;;;;;;;0.10;0.00;;;23.40;59.70;;;;;;5045368;28;20149;-41
2022/10/14 09:54:30;;;;;;;0.10;0.00;;;23.40;59.70;;;;;;5045725;28;20044;-41
2022/10/14 09:57:06;;;;;;;0.68;0.10;;;23.40;59.60;;;;;;5051445;28;20060;-41
2022/10/14 09:59:34;;;;;;;3.38;0.10;;;23.40;59.60;;;;;;5051826;28;20472;-41
2022/10/14 10:02:04;;;;;;;0.63;0.10;;;23.40;59.70;;;;;;5051713;28;20045;-41
2022/10/14 10:04:34;;;;;;;0.55;0.10;;;23.40;59.60;;;;;;5048018;28;20111;-41
2022/10/14 10:07:05;;;;;;;0.60;0.32;;;23.30;59.60;;;;;;5049935;28;20124;-46
2022/10/14 10:09:33;;;;;;;0.75;0.10;;;23.40;59.60;;;;;;5051859;28;20083;-41
2022/10/14 10:12:00;;;;;;;2.15;0.20;;;23.30;59.50;;;;;;5051484;28;20045;-41
2022/10/14 10:14:31;;;;;;;0.88;0.10;;;23.30;59.60;;;;;;5050988;28;20043;-41
2022/10/14 10:17:18;;;;;;;0.75;0.10;;;23.30;59.50;;;;;;5050270;28;20041;-41
2022/10/14 10:19:50;;;;;;;1.60;0.10;;;23.40;59.50;;;;;;5050885;28;20037;-41
2022/10/14 10:22:23;;;;;;;0.35;0.10;;;23.30;59.50;;;;;;5051518;28;20052;-41
2022/10/14 10:24:52;;;;;;;0.73;0.25;;;23.40;59.60;;;;;;5051258;28;20120;-41
2022/10/14 10:27:20;;;;;;;0.30;0.10;;;23.30;59.50;;;;;;5051153;28;20044;-41
2022/10/14 10:29:47;;;;;;;0.75;0.15;;;23.30;59.50;;;;;;5044653;28;20037;-41
2022/10/14 10:32:22;;;;;;;1.63;0.22;;;23.30;59.40;;;;;;5051033;28;20493;-41
2022/10/14 10:35:17;;;;;;;1.40;0.20;;;23.30;59.40;;;;;;5048191;28;20049;-41
2022/10/14 10:37:55;;;;;;;0.63;0.10;;;23.30;59.30;;;;;;5050926;28;20090;-40
2022/10/14 10:40:39;;;;;;;0.30;0.10;;;23.30;59.40;;;;;;5049598;28;20044;-41
2022/10/14 10:43:30;;;;;;;0.47;0.22;;;23.30;59.30;;;;;;5050867;28;20477;-40
2022/10/14 10:46:21;;;;;;;1.67;0.20;;;23.30;59.30;;;;;;5050823;28;20520;-41
2022/10/14 10:49:00;;;;;;;0.60;0.10;;;23.30;59.20;;;;;;5050867;28;20131;-41
2022/10/14 10:51:33;;;;;;;1.58;0.20;;;23.30;59.20;;;;;;5049999;28;20557;-41
2022/10/14 10:54:11;;;;;;;0.20;0.10;;;23.30;59.10;;;;;;5050065;28;20073;-41
2022/10/14 10:56:43;;;;;;;0.70;0.10;;;23.30;59.10;;;;;;5050711;28;20104;-41
2022/10/14 10:59:46;;;;;;;1.55;0.30;;;23.30;59.10;;;;;;5050801;28;20497;-41
2022/10/14 11:02:54;;;;;;;0.85;0.30;;;23.40;59.10;;;;;;5047062;28;20065;-41
2022/10/14 11:05:39;;;;;;;0.35;0.17;;;23.30;59.00;;;;;;5028037;28;20081;-41
2022/10/14 11:14:13;;;;;;;0.35;0.13;;;23.30;59.00;;;;;;5027872;28;20050;-41
2022/10/14 11:16:50;;;;;;;0.10;0.00;;;23.30;59.00;;;;;;5027225;28;20071;-41
2022/10/14 11:19:30;;;;;;;0.47;0.10;;;23.30;58.90;;;;;;5027782;28;20046;-40
2022/10/14 11:22:06;;;;;;;0.40;0.10;;;23.30;58.90;;;;;;5027174;28;20047;-41
2022/10/14 11:24:42;;;;;;;1.00;0.95;;;23.30;58.90;;;;;;5027392;28;20056;-41
2022/10/14 11:27:15;;;;;;;0.10;0.10;;;23.30;58.90;;;;;;5027411;28;20041;-41
2022/10/14 11:30:12;;;;;;;0.68;0.20;;;23.30;58.90;;;;;;5027690;28;20077;-41
2022/10/14 11:33:04;;;;;;;0.28;0.10;;;23.30;58.90;;;;;;5027069;28;20045;-41
2022/10/14 11:35:43;;;;;;;2.60;0.10;;;23.30;58.90;;;;;;5027480;28;20054;-40
2022/10/14 11:38:27;;;;;;;1.25;0.10;;;23.30;58.90;;;;;;5027432;28;20056;-40
2022/10/14 11:41:01;;;;;;;0.03;0.00;;;23.30;58.80;;;;;;5024879;28;20519;-41
2022/10/14 11:43:39;;;;;;;0.28;0.10;;;23.30;58.80;;;;;;5049954;28;20466;-41
2022/10/14 11:46:09;;;;;;;0.38;0.00;;;23.30;58.80;;;;;;5049248;28;20450;-41
2022/10/14 11:48:41;;;;;;;1.23;0.00;;;23.30;58.70;;;;;;5043299;28;20045;-41
2022/10/14 11:51:15;;;;;;;0.17;0.00;;;23.30;58.60;;;;;;5043253;28;20045;-41
2022/10/14 11:53:52;;;;;;;0.10;0.10;;;23.30;58.60;;;;;;5049292;28;20124;-41
2022/10/14 11:56:42;;;;;;;0.75;0.10;;;23.30;58.60;;;;;;5049206;28;20045;-41
2022/10/14 11:59:19;;;;;;;0.13;0.10;;;23.30;58.50;;;;;;5039742;28;20526;-41
2022/10/14 12:01:51;;;;;;;0.52;0.20;;;23.30;58.60;;;;;;5042508;28;20523;-40
2022/10/14 12:04:26;;;;;;;0.25;0.00;;;23.30;58.60;;;;;;5048992;28;20048;-40
2022/10/14 12:07:00;;;;;;;0.00;0.00;;;23.30;58.50;;;;;;5049316;28;20091;-40
2022/10/14 12:09:37;;;;;;;0.05;0.00;;;23.30;58.60;;;;;;5049448;28;20047;-40
2022/10/14 12:12:08;;;;;;;0.43;0.43;;;23.30;58.60;;;;;;5049320;28;20076;-40
2022/10/14 12:14:38;;;;;;;4.03;0.08;;;23.30;58.60;;;;;;5048721;28;20600;-41
2022/10/14 12:17:15;;;;;;;0.10;0.05;;;23.30;58.60;;;;;;5048708;28;20056;-41
2022/10/14 12:19:43;;;;;;;0.00;0.00;;;23.30;58.50;;;;;;5049325;28;20053;-41
2022/10/14 12:22:18;;;;;;;1.10;0.10;;;23.30;58.50;;;;;;5049230;28;20508;-41
2022/10/14 12:24:50;;;;;;;0.10;0.08;;;23.30;58.50;;;;;;5043138;28;20044;-40
2022/10/14 12:27:19;;;;;;;1.08;0.10;;;23.30;58.50;;;;;;5048301;28;20060;-41
2022/10/14 12:29:49;;;;;;;0.20;0.05;;;23.30;58.50;;;;;;5048852;28;20041;-39
2022/10/14 12:32:23;;;;;;;0.22;0.00;;;23.20;58.40;;;;;;5048423;28;20037;-41
2022/10/14 12:34:53;;;;;;;0.10;0.00;;;23.30;58.50;;;;;;5049041;28;20049;-40
2022/10/14 12:37:44;;;;;;;0.13;0.05;;;23.20;58.50;;;;;;5048736;28;20080;-41
2022/10/14 12:40:35;;;;;;;0.50;0.00;;;23.30;58.50;;;;;;5048969;28;20615;-41
2022/10/14 12:43:13;;;;;;;0.10;0.00;;;23.30;58.50;;;;;;5048727;28;20037;-40
2022/10/14 12:45:49;;;;;;;1.20;0.32;;;23.30;58.50;;;;;;5048348;28;20124;-40
2022/10/14 12:48:20;;;;;;;0.10;0.00;;;23.30;58.60;;;;;;5048006;28;20048;-41
2022/10/14 12:50:50;;;;;;;0.20;0.00;;;23.20;58.50;;;;;;5048999;28;20049;-40
2022/10/14 12:53:23;;;;;;;0.00;0.00;;;23.30;58.50;;;;;;5048297;28;20426;-40
2022/10/14 12:55:54;;;;;;;0.08;0.05;;;23.30;58.50;;;;;;5048742;28;20044;-40
2022/10/14 12:58:27;;;;;;;0.30;0.10;;;23.30;58.50;;;;;;5041756;28;20136;-40
2022/10/14 13:00:58;;;;;;;0.00;0.00;;;23.20;58.40;;;;;;5042811;28;20086;-40
2022/10/14 13:03:28;;;;;;;0.10;0.00;;;23.30;58.50;;;;;;5048440;28;20055;-39
2022/10/14 13:06:27;;;;;;;0.50;0.03;;;23.20;58.40;;;;;;5048516;28;20075;-40
2022/10/14 13:09:30;;;;;;;0.00;0.00;;;23.30;58.40;;;;;;5048339;28;20478;-39
2022/10/14 13:12:39;;;;;;;0.47;0.00;;;23.30;58.50;;;;;;5047753;28;20505;-39
2022/10/14 13:15:40;;;;;;;0.15;0.03;;;23.20;58.40;;;;;;5010135;28;20568;-41
2022/10/14 13:18:47;;;;;;;0.00;0.00;;;23.20;58.50;;;;;;5019885;28;20057;-42
2022/10/14 13:21:29;;;;;;;0.30;0.10;;;23.20;58.50;;;;;;5005841;28;20120;-41